Time;durP1;ratioP1;P1;durP2;ratioP2;P2;SDS_P1;SDS_P2;PMS_P1;PMS_P2;Temp;Humidity;BMP_temperature;BMP_pressure;BME280_temperature;BME280_humidity;BME280_pressure;Samples;Min_cycle;Max_cycle;Signal;HPM_P1;HPM_P2
2023/12/26 00:00:14;;;;;;;0.43;0.43;;;10.70;99.90;;;;;;5009929;28;20034;-48
2023/12/26 00:02:39;;;;;;;0.40;0.40;;;10.70;99.90;;;;;;5009421;28;20029;-50
2023/12/26 00:05:05;;;;;;;1.67;0.40;;;10.60;99.90;;;;;;5009927;28;20029;-51
2023/12/26 00:07:31;;;;;;;0.68;0.47;;;10.70;99.90;;;;;;5010255;28;20038;-48
2023/12/26 00:09:56;;;;;;;0.80;0.80;;;10.70;99.90;;;;;;5009857;28;20034;-46
2023/12/26 00:12:24;;;;;;;0.32;0.32;;;10.70;99.90;;;;;;4991719;28;20568;-52
2023/12/26 00:14:50;;;;;;;0.32;0.32;;;10.70;99.90;;;;;;5009752;28;20061;-53
2023/12/26 00:17:16;;;;;;;1.08;0.40;;;10.70;99.90;;;;;;4991572;28;20072;-47
2023/12/26 00:19:41;;;;;;;0.45;0.45;;;10.70;99.90;;;;;;4991680;28;20509;-44
2023/12/26 00:22:07;;;;;;;0.50;0.50;;;10.60;99.90;;;;;;4991403;28;20389;-49
2023/12/26 00:24:32;;;;;;;0.85;0.50;;;10.60;99.90;;;;;;5009532;28;20045;-48
2023/12/26 00:26:58;;;;;;;0.40;0.40;;;10.60;99.90;;;;;;5009394;28;20041;-50
2023/12/26 00:29:24;;;;;;;0.30;0.30;;;10.50;99.90;;;;;;5010479;28;20659;-51
2023/12/26 00:31:51;;;;;;;0.30;0.30;;;10.50;99.90;;;;;;5010013;28;20455;-44
2023/12/26 00:34:17;;;;;;;0.85;0.30;;;10.50;99.90;;;;;;5009401;28;20018;-48
2023/12/26 00:36:42;;;;;;;1.13;0.40;;;10.50;99.90;;;;;;5009505;28;20440;-50
2023/12/26 00:39:08;;;;;;;0.50;0.50;;;10.40;99.90;;;;;;5009663;28;20053;-45
2023/12/26 00:41:33;;;;;;;0.47;0.47;;;10.40;99.90;;;;;;5008439;28;20037;-53
2023/12/26 00:43:59;;;;;;;0.85;0.52;;;10.40;99.90;;;;;;5009542;28;20119;-58
2023/12/26 00:46:24;;;;;;;0.40;0.40;;;10.40;99.90;;;;;;4990925;28;20041;-51
2023/12/26 00:48:50;;;;;;;0.45;0.45;;;10.40;99.90;;;;;;5008990;28;20493;-53
2023/12/26 00:51:16;;;;;;;0.40;0.40;;;10.30;99.90;;;;;;5008276;28;20040;-52
2023/12/26 00:53:41;;;;;;;0.40;0.40;;;10.40;99.90;;;;;;4990879;28;20386;-50
2023/12/26 00:56:07;;;;;;;2.33;0.40;;;10.60;99.90;;;;;;5052482;23;20049;-50
2023/12/26 00:58:33;;;;;;;0.45;0.40;;;10.40;99.90;;;;;;5049116;28;20112;-52
2023/12/26 01:00:58;;;;;;;0.80;0.60;;;10.40;99.90;;;;;;5031669;28;20116;-50
2023/12/26 01:03:24;;;;;;;1.88;0.40;;;10.30;99.90;;;;;;5031520;28;20025;-47
2023/12/26 01:05:50;;;;;;;3.35;0.40;;;10.30;99.90;;;;;;5013708;28;20022;-49
2023/12/26 01:08:16;;;;;;;0.50;0.50;;;10.30;99.90;;;;;;5031565;28;20520;-48
2023/12/26 01:10:42;;;;;;;0.50;0.50;;;10.30;99.90;;;;;;5031301;28;20497;-48
2023/12/26 01:13:08;;;;;;;0.30;0.30;;;10.40;99.90;;;;;;5031372;28;20025;-47
2023/12/26 01:15:33;;;;;;;0.47;0.47;;;10.30;99.90;;;;;;5013752;28;20032;-48
2023/12/26 01:17:59;;;;;;;0.47;0.47;;;10.40;99.90;;;;;;5031643;28;20079;-45
2023/12/26 01:20:24;;;;;;;0.30;0.30;;;10.40;99.90;;;;;;5031583;28;20037;-46
2023/12/26 01:22:50;;;;;;;0.40;0.30;;;10.40;99.90;;;;;;5031197;28;20098;-46
2023/12/26 01:25:15;;;;;;;0.43;0.43;;;10.40;99.90;;;;;;5031363;28;20048;-46
2023/12/26 01:27:42;;;;;;;0.40;0.38;;;10.40;99.90;;;;;;5031654;28;20025;-48
2023/12/26 01:30:07;;;;;;;0.30;0.30;;;10.50;99.90;;;;;;5031269;28;20032;-46
2023/12/26 01:32:33;;;;;;;0.38;0.38;;;10.40;99.90;;;;;;5013246;28;20580;-47
2023/12/26 01:35:00;;;;;;;0.40;0.40;;;10.50;99.90;;;;;;5031324;28;20025;-48
2023/12/26 01:37:25;;;;;;;0.50;0.50;;;10.50;99.90;;;;;;5031644;28;20044;-47
2023/12/26 01:39:51;;;;;;;0.32;0.32;;;10.50;99.90;;;;;;5030042;28;20026;-44
2023/12/26 01:42:17;;;;;;;0.40;0.40;;;10.50;99.90;;;;;;5030930;28;20025;-48
2023/12/26 01:44:43;;;;;;;0.28;0.28;;;10.50;99.90;;;;;;5031617;28;20476;-45
2023/12/26 01:47:09;;;;;;;0.40;0.40;;;10.50;99.90;;;;;;5031308;28;20424;-47
2023/12/26 01:49:35;;;;;;;0.50;0.50;;;10.50;99.90;;;;;;5031011;28;20477;-47
2023/12/26 01:52:02;;;;;;;0.50;0.50;;;10.50;99.90;;;;;;5030927;28;20037;-48
2023/12/26 01:54:31;;;;;;;0.20;0.20;;;10.50;99.90;;;;;;5030908;28;20071;-47
2023/12/26 01:56:58;;;;;;;0.30;0.30;;;10.50;99.90;;;;;;5031217;28;20033;-48
2023/12/26 01:59:23;;;;;;;0.30;0.30;;;10.60;99.90;;;;;;5013373;28;20053;-49
2023/12/26 02:01:49;;;;;;;0.60;0.40;;;10.60;99.90;;;;;;5030791;28;20452;-48
2023/12/26 02:04:15;;;;;;;0.57;0.40;;;10.50;99.90;;;;;;5031008;28;20060;-46
2023/12/26 02:06:41;;;;;;;0.30;0.30;;;10.60;99.90;;;;;;5031013;28;20026;-46
2023/12/26 02:09:10;;;;;;;0.30;0.30;;;10.60;99.90;;;;;;5034648;28;20108;-48
2023/12/26 02:11:37;;;;;;;0.80;0.52;;;10.50;99.90;;;;;;5034381;28;20524;-48
2023/12/26 02:14:06;;;;;;;2.83;0.52;;;10.60;99.90;;;;;;5034703;28;20013;-47
2023/12/26 02:16:35;;;;;;;4.55;0.95;;;10.60;99.90;;;;;;5034781;28;20036;-46
2023/12/26 02:19:01;;;;;;;1.95;0.63;;;10.70;99.90;;;;;;5034756;28;20022;-46
2023/12/26 02:21:26;;;;;;;1.00;0.60;;;10.70;99.90;;;;;;5034222;28;20036;-51
2023/12/26 02:23:56;;;;;;;4.20;1.35;;;10.70;99.90;;;;;;5034326;28;20096;-50
2023/12/26 02:26:27;;;;;;;0.95;0.63;;;10.60;99.90;;;;;;5034441;28;20033;-47
2023/12/26 02:28:54;;;;;;;10.40;2.70;;;10.70;99.90;;;;;;5034050;28;20026;-46
2023/12/26 02:31:21;;;;;;;2.28;1.05;;;10.70;99.90;;;;;;5034090;28;20041;-49
2023/12/26 02:33:47;;;;;;;1.38;0.90;;;10.70;99.90;;;;;;5034514;28;20476;-46
2023/12/26 02:36:13;;;;;;;2.97;1.40;;;10.70;99.90;;;;;;5034148;28;20424;-49
2023/12/26 02:38:39;;;;;;;3.63;1.17;;;10.70;99.90;;;;;;5034067;28;20056;-49
2023/12/26 02:41:05;;;;;;;4.10;1.27;;;10.70;99.90;;;;;;5033945;28;20052;-47
2023/12/26 02:43:32;;;;;;;6.03;1.45;;;10.70;99.90;;;;;;5033923;28;20112;-47
2023/12/26 02:45:58;;;;;;;2.90;1.42;;;10.70;99.90;;;;;;5034148;28;20083;-47
2023/12/26 02:48:23;;;;;;;9.88;1.38;;;10.80;99.90;;;;;;5032679;28;20025;-50
2023/12/26 02:50:49;;;;;;;2.78;1.25;;;10.80;99.90;;;;;;5033746;28;20021;-49
2023/12/26 02:53:14;;;;;;;10.35;1.83;;;10.70;99.90;;;;;;5015975;28;20060;-44
2023/12/26 02:55:40;;;;;;;4.32;1.08;;;10.80;99.90;;;;;;5033420;28;20041;-46
2023/12/26 02:58:05;;;;;;;4.00;1.30;;;10.80;99.90;;;;;;5033904;28;20438;-47
2023/12/26 03:00:31;;;;;;;5.15;1.30;;;10.70;99.90;;;;;;5033880;28;20140;-46
2023/12/26 03:02:57;;;;;;;3.35;1.45;;;10.70;99.90;;;;;;5033247;28;20489;-47
2023/12/26 03:05:23;;;;;;;2.42;1.00;;;10.70;99.90;;;;;;5033761;28;20036;-46
2023/12/26 03:07:49;;;;;;;9.80;1.42;;;10.70;99.90;;;;;;5034046;28;20104;-48
2023/12/26 03:10:14;;;;;;;3.28;1.50;;;10.60;99.90;;;;;;5033698;28;20029;-45
2023/12/26 03:12:40;;;;;;;7.90;1.27;;;10.60;99.90;;;;;;5033287;28;20025;-46
2023/12/26 03:15:06;;;;;;;4.07;1.23;;;10.60;99.90;;;;;;5033480;28;20032;-47
2023/12/26 03:17:31;;;;;;;5.18;1.40;;;10.60;99.90;;;;;;5033400;28;20022;-45
2023/12/26 03:19:57;;;;;;;5.82;1.50;;;10.60;99.90;;;;;;5032063;28;20028;-49
2023/12/26 03:22:23;;;;;;;7.18;1.65;;;10.60;99.90;;;;;;5033098;28;20029;-46
2023/12/26 03:24:48;;;;;;;3.10;1.58;;;10.70;99.90;;;;;;5033228;28;20500;-47
2023/12/26 03:27:14;;;;;;;6.80;1.95;;;10.60;99.90;;;;;;5033155;28;20064;-46
2023/12/26 03:29:40;;;;;;;7.07;1.50;;;10.60;99.90;;;;;;5033053;28;20026;-46
2023/12/26 03:32:07;;;;;;;4.70;1.35;;;10.70;99.90;;;;;;5031562;28;20083;-48
2023/12/26 03:34:33;;;;;;;6.72;1.42;;;10.70;99.90;;;;;;5031637;28;20108;-48
2023/12/26 03:36:58;;;;;;;4.00;1.45;;;10.70;99.90;;;;;;5033093;28;20101;-48
2023/12/26 03:39:24;;;;;;;4.60;1.42;;;10.60;99.90;;;;;;5033034;28;20032;-46
2023/12/26 03:41:49;;;;;;;5.53;1.60;;;10.60;99.90;;;;;;5032659;28;20029;-48
2023/12/26 03:44:16;;;;;;;10.30;2.00;;;10.60;99.90;;;;;;5032848;28;20029;-46
2023/12/26 03:46:42;;;;;;;4.22;1.45;;;10.60;99.90;;;;;;5032922;28;20484;-46
2023/12/26 03:49:07;;;;;;;4.43;1.75;;;10.60;99.90;;;;;;5033072;28;20535;-47
2023/12/26 03:51:33;;;;;;;4.25;1.50;;;10.60;99.90;;;;;;5032334;28;20068;-45
2023/12/26 03:53:59;;;;;;;2.95;1.25;;;10.50;99.90;;;;;;5032737;28;20070;-49
2023/12/26 03:56:29;;;;;;;6.80;2.22;;;10.60;99.90;;;;;;5032539;28;20033;-48
2023/12/26 03:58:55;;;;;;;9.05;1.65;;;10.60;99.90;;;;;;5015108;28;20472;-48
2023/12/26 04:01:21;;;;;;;15.55;2.30;;;10.60;99.90;;;;;;5032287;28;20044;-46
2023/12/26 04:03:47;;;;;;;4.15;2.03;;;10.50;99.90;;;;;;5032949;28;20025;-46
2023/12/26 04:06:12;;;;;;;8.82;1.67;;;10.50;99.90;;;;;;5032375;28;20029;-46
2023/12/26 04:08:37;;;;;;;6.45;1.50;;;10.50;99.90;;;;;;5032530;28;20022;-50
2023/12/26 04:11:03;;;;;;;7.63;2.40;;;10.40;99.90;;;;;;5014464;28;20095;-45
2023/12/26 04:13:29;;;;;;;7.97;1.92;;;10.40;99.90;;;;;;5032586;28;20052;-47
2023/12/26 04:15:54;;;;;;;11.18;2.40;;;10.40;99.90;;;;;;5032256;28;20036;-50
2023/12/26 04:18:20;;;;;;;7.25;1.65;;;10.40;99.90;;;;;;5032223;28;20440;-51
2023/12/26 04:20:46;;;;;;;6.47;2.03;;;10.40;99.90;;;;;;5032153;28;20040;-47
2023/12/26 04:23:11;;;;;;;5.57;2.35;;;10.40;99.90;;;;;;5032016;28;20072;-49
2023/12/26 04:25:37;;;;;;;9.15;2.38;;;10.40;99.90;;;;;;5014377;28;20029;-49
2023/12/26 04:28:02;;;;;;;3.40;1.58;;;10.40;99.90;;;;;;5032080;28;20112;-50
2023/12/26 04:30:28;;;;;;;8.10;2.28;;;10.40;99.90;;;;;;5031590;28;20090;-47
2023/12/26 04:32:53;;;;;;;11.27;1.58;;;10.40;99.90;;;;;;5030390;28;20539;-47
2023/12/26 04:35:19;;;;;;;9.00;2.35;;;10.40;99.90;;;;;;5032150;28;20022;-45
2023/12/26 04:37:44;;;;;;;6.15;1.85;;;10.40;99.90;;;;;;5032261;28;20049;-48
2023/12/26 04:40:10;;;;;;;12.55;2.50;;;10.40;99.90;;;;;;5032204;28;20147;-48
2023/12/26 04:42:36;;;;;;;6.32;2.83;;;10.40;99.90;;;;;;5031847;28;20104;-46
2023/12/26 04:45:02;;;;;;;7.95;2.05;;;10.40;99.90;;;;;;5032191;28;20041;-49
2023/12/26 04:47:28;;;;;;;5.18;1.85;;;10.40;99.90;;;;;;5032151;28;20021;-47
2023/12/26 04:49:54;;;;;;;9.43;2.13;;;10.40;99.90;;;;;;5031766;28;20079;-46
2023/12/26 04:52:19;;;;;;;6.05;2.10;;;10.40;99.90;;;;;;5031626;28;20025;-46
2023/12/26 04:54:45;;;;;;;6.10;1.67;;;10.50;99.90;;;;;;5013976;28;20068;-47
2023/12/26 04:57:11;;;;;;;11.10;2.75;;;10.50;99.90;;;;;;5031935;28;20072;-47
2023/12/26 04:59:39;;;;;;;8.18;1.88;;;10.40;99.90;;;;;;5031781;28;20032;-49
2023/12/26 05:02:04;;;;;;;11.05;2.42;;;10.50;99.90;;;;;;5031686;28;20045;-45
2023/12/26 05:04:30;;;;;;;7.68;2.08;;;10.50;99.90;;;;;;5031923;28;20057;-47
2023/12/26 05:06:56;;;;;;;10.80;2.10;;;10.50;99.90;;;;;;5031867;28;20528;-51
2023/12/26 05:09:21;;;;;;;11.40;2.13;;;10.50;99.90;;;;;;5031675;28;20032;-45
2023/12/26 05:11:47;;;;;;;5.97;2.00;;;10.50;99.90;;;;;;5031444;28;20068;-45
2023/12/26 05:14:12;;;;;;;7.82;2.42;;;10.50;99.90;;;;;;5031739;28;20061;-49
2023/12/26 05:16:42;;;;;;;12.52;2.20;;;10.50;99.90;;;;;;5031749;28;20021;-48
2023/12/26 05:19:08;;;;;;;9.68;2.28;;;10.50;99.90;;;;;;5031842;28;20024;-47
2023/12/26 05:21:35;;;;;;;8.40;1.75;;;10.50;99.90;;;;;;5031412;28;20021;-48
2023/12/26 05:24:00;;;;;;;9.02;2.78;;;10.50;99.90;;;;;;5031786;28;20030;-49
2023/12/26 05:26:26;;;;;;;5.28;1.83;;;10.50;99.90;;;;;;5031860;28;20182;-45
2023/12/26 05:28:51;;;;;;;10.70;2.08;;;10.50;99.90;;;;;;5013837;28;20488;-46
2023/12/26 05:31:20;;;;;;;8.02;1.90;;;10.50;99.90;;;;;;5031287;28;20491;-50
2023/12/26 05:33:46;;;;;;;5.82;2.10;;;10.50;99.90;;;;;;5031252;28;20025;-46
2023/12/26 05:36:12;;;;;;;10.55;2.15;;;10.50;99.90;;;;;;5031614;28;20044;-51
2023/12/26 05:38:37;;;;;;;9.70;2.00;;;10.50;99.90;;;;;;5031786;28;20079;-46
2023/12/26 05:41:04;;;;;;;6.32;2.30;;;10.50;99.90;;;;;;5031655;28;20408;-46
2023/12/26 05:43:30;;;;;;;5.93;1.77;;;10.50;99.90;;;;;;5034351;28;20036;-46
2023/12/26 05:45:55;;;;;;;15.73;3.80;;;10.40;99.90;;;;;;5035677;28;20029;-46
2023/12/26 05:48:21;;;;;;;5.90;2.05;;;10.40;99.90;;;;;;5017823;28;20037;-44
2023/12/26 05:50:46;;;;;;;7.68;2.10;;;10.40;99.90;;;;;;5035321;28;20021;-46
2023/12/26 05:53:12;;;;;;;5.63;1.60;;;10.40;99.90;;;;;;5035247;28;20025;-47
2023/12/26 05:55:38;;;;;;;6.47;1.85;;;10.40;99.90;;;;;;5035241;28;20026;-47
2023/12/26 05:58:03;;;;;;;8.25;1.85;;;10.40;99.90;;;;;;5035664;28;20033;-46
2023/12/26 06:00:29;;;;;;;10.77;1.80;;;10.40;99.90;;;;;;5035182;28;20040;-48
2023/12/26 06:02:54;;;;;;;6.82;1.75;;;10.30;99.90;;;;;;5034810;28;20477;-47
2023/12/26 06:05:20;;;;;;;6.40;1.55;;;10.30;99.90;;;;;;5035167;28;20040;-47
2023/12/26 06:07:45;;;;;;;7.63;1.65;;;10.30;99.90;;;;;;5035333;28;20362;-47
2023/12/26 06:10:11;;;;;;;5.18;1.60;;;10.30;99.90;;;;;;5035129;28;20507;-47
2023/12/26 06:12:36;;;;;;;6.78;1.50;;;10.30;99.90;;;;;;5034768;28;20021;-49
2023/12/26 06:15:02;;;;;;;15.75;2.08;;;10.20;99.90;;;;;;5034916;28;20105;-45
2023/12/26 06:17:29;;;;;;;4.72;1.83;;;10.20;99.90;;;;;;5034696;28;20104;-47
2023/12/26 06:19:54;;;;;;;6.20;1.77;;;10.30;99.90;;;;;;5035069;28;20112;-52
2023/12/26 06:22:20;;;;;;;12.32;2.33;;;10.30;99.90;;;;;;5034832;28;20100;-47
2023/12/26 06:24:45;;;;;;;10.38;3.15;;;10.30;99.90;;;;;;5034670;28;20025;-47
2023/12/26 06:27:11;;;;;;;13.55;2.05;;;10.20;99.90;;;;;;5034700;28;20034;-46
2023/12/26 06:29:36;;;;;;;6.55;1.95;;;10.20;99.90;;;;;;5034782;28;20022;-49
2023/12/26 06:32:02;;;;;;;9.95;2.38;;;10.20;99.90;;;;;;5034297;28;20331;-50
2023/12/26 06:34:28;;;;;;;9.35;1.98;;;10.30;99.90;;;;;;5034467;28;20064;-48
2023/12/26 06:36:53;;;;;;;11.25;2.33;;;10.30;99.90;;;;;;5034511;28;20026;-47
2023/12/26 06:39:19;;;;;;;5.70;2.65;;;10.30;99.90;;;;;;5034591;28;20397;-47
2023/12/26 06:41:44;;;;;;;5.82;1.75;;;10.20;99.90;;;;;;5034185;28;20037;-50
2023/12/26 06:44:12;;;;;;;7.88;1.77;;;10.30;99.90;;;;;;5034535;28;20526;-46
2023/12/26 06:46:41;;;;;;;8.27;2.38;;;10.30;99.90;;;;;;5034318;28;20373;-49
2023/12/26 06:49:07;;;;;;;11.32;1.85;;;10.30;99.90;;;;;;5034654;28;20029;-46
2023/12/26 06:51:33;;;;;;;5.15;1.75;;;10.30;99.90;;;;;;5034129;28;20041;-48
2023/12/26 06:53:58;;;;;;;5.13;2.30;;;10.30;99.90;;;;;;5032601;28;20017;-48
2023/12/26 06:56:24;;;;;;;10.43;3.35;;;10.30;99.90;;;;;;5064473;23;20048;-48
2023/12/26 06:58:49;;;;;;;3.33;1.75;;;10.30;99.90;;;;;;5052405;28;20407;-42
2023/12/26 07:01:15;;;;;;;4.72;1.38;;;10.30;99.90;;;;;;5040029;28;20028;-43
2023/12/26 07:03:41;;;;;;;9.77;1.58;;;10.30;99.90;;;;;;5033480;28;20519;-43
2023/12/26 07:06:07;;;;;;;8.10;1.55;;;10.30;99.90;;;;;;5033816;28;20033;-44
2023/12/26 07:08:32;;;;;;;6.40;2.05;;;10.30;99.90;;;;;;5033677;28;20022;-47
2023/12/26 07:10:58;;;;;;;7.25;1.90;;;10.30;99.90;;;;;;5033457;28;20053;-44
2023/12/26 07:13:23;;;;;;;4.90;1.88;;;10.30;99.90;;;;;;5032076;28;20405;-43
2023/12/26 07:15:51;;;;;;;9.05;1.95;;;10.30;99.90;;;;;;5033342;28;20033;-43
2023/12/26 07:18:17;;;;;;;4.85;1.77;;;10.30;99.90;;;;;;5032253;28;20032;-42
2023/12/26 07:20:42;;;;;;;4.68;1.75;;;10.30;99.90;;;;;;5033427;28;20477;-43
2023/12/26 07:23:08;;;;;;;3.45;1.60;;;10.30;99.90;;;;;;5033274;28;20029;-48
2023/12/26 07:25:33;;;;;;;2.55;1.40;;;10.30;99.90;;;;;;5033514;28;20101;-44
2023/12/26 07:27:59;;;;;;;7.78;2.00;;;10.30;99.90;;;;;;5033053;28;20396;-49
2023/12/26 07:30:24;;;;;;;7.97;2.15;;;10.30;99.90;;;;;;5033294;28;20160;-43
2023/12/26 07:32:50;;;;;;;6.00;1.70;;;10.30;99.90;;;;;;5033172;28;20374;-43
2023/12/26 07:35:15;;;;;;;4.88;1.92;;;10.40;99.90;;;;;;5033527;28;20040;-42
2023/12/26 07:37:41;;;;;;;7.97;1.75;;;10.40;99.90;;;;;;5033375;28;20048;-48
2023/12/26 07:40:07;;;;;;;6.70;2.03;;;10.30;99.90;;;;;;5033148;28;20064;-43
2023/12/26 07:42:33;;;;;;;6.75;1.80;;;10.40;99.90;;;;;;5033132;28;20033;-43
2023/12/26 07:44:58;;;;;;;5.65;1.80;;;10.40;99.90;;;;;;5033110;28;20187;-41
2023/12/26 07:47:24;;;;;;;6.85;2.35;;;10.40;99.90;;;;;;5031691;28;20030;-44
2023/12/26 07:49:49;;;;;;;5.68;1.90;;;10.40;99.90;;;;;;5032829;28;20484;-44
2023/12/26 07:52:15;;;;;;;3.53;1.50;;;10.40;99.90;;;;;;5031332;28;20058;-46
2023/12/26 07:54:41;;;;;;;6.43;1.40;;;10.40;99.90;;;;;;5032557;28;20045;-44
2023/12/26 07:57:07;;;;;;;3.90;2.17;;;10.40;99.90;;;;;;5032732;28;20535;-44
2023/12/26 07:59:32;;;;;;;3.35;1.27;;;10.40;99.90;;;;;;5032732;28;20096;-44
2023/12/26 08:01:58;;;;;;;5.65;1.30;;;10.40;99.90;;;;;;5032126;28;20040;-50
2023/12/26 08:04:23;;;;;;;6.55;1.83;;;10.40;99.90;;;;;;5032216;28;20040;-44
2023/12/26 08:06:49;;;;;;;6.53;2.38;;;10.40;99.90;;;;;;5030776;28;20080;-47
2023/12/26 08:09:14;;;;;;;4.25;1.55;;;10.40;99.90;;;;;;5032622;28;20033;-51
2023/12/26 08:11:40;;;;;;;7.28;2.30;;;10.40;99.90;;;;;;5042171;28;20037;-49
2023/12/26 08:14:05;;;;;;;9.45;1.60;;;10.40;99.90;;;;;;5051492;28;20067;-49
2023/12/26 08:16:31;;;;;;;4.22;1.52;;;10.40;99.90;;;;;;5051839;28;20024;-46
2023/12/26 08:18:57;;;;;;;5.22;1.40;;;10.50;99.90;;;;;;5052039;28;20155;-43
2023/12/26 08:21:23;;;;;;;6.82;1.50;;;10.50;99.90;;;;;;5051924;28;20033;-44
2023/12/26 08:23:48;;;;;;;6.50;1.42;;;10.50;99.90;;;;;;5050410;28;20618;-45
2023/12/26 08:26:14;;;;;;;4.75;1.33;;;10.50;99.90;;;;;;5051973;28;20538;-42
2023/12/26 08:28:41;;;;;;;5.22;1.50;;;10.50;99.90;;;;;;5052036;28;20056;-47
2023/12/26 08:31:07;;;;;;;9.63;1.88;;;10.50;99.90;;;;;;5051182;28;20114;-45
2023/12/26 08:33:35;;;;;;;5.50;1.63;;;10.50;99.90;;;;;;5050354;28;20045;-47
2023/12/26 08:36:01;;;;;;;5.70;1.60;;;10.50;99.90;;;;;;5051693;28;20021;-45
2023/12/26 08:38:27;;;;;;;3.88;1.40;;;10.40;99.90;;;;;;5052061;28;20439;-47
2023/12/26 08:40:53;;;;;;;4.38;1.60;;;10.50;99.90;;;;;;5051384;28;20021;-45
2023/12/26 08:43:19;;;;;;;6.00;3.38;;;10.50;99.90;;;;;;5051985;28;20362;-46
2023/12/26 08:45:44;;;;;;;2.33;1.27;;;10.50;99.90;;;;;;5051742;28;20108;-46
2023/12/26 08:48:10;;;;;;;4.00;1.38;;;10.50;99.90;;;;;;5051657;28;20400;-45
2023/12/26 08:50:36;;;;;;;6.28;1.83;;;10.50;99.90;;;;;;5051768;28;20078;-50
2023/12/26 08:53:01;;;;;;;3.88;1.80;;;10.50;99.90;;;;;;5050131;28;20036;-44
2023/12/26 08:55:27;;;;;;;5.70;2.30;;;10.50;99.90;;;;;;5050506;28;20060;-44
2023/12/26 08:57:52;;;;;;;6.32;1.60;;;10.50;99.90;;;;;;5051842;28;20028;-44
2023/12/26 09:00:19;;;;;;;4.88;1.88;;;10.50;99.90;;;;;;5050251;28;20533;-46
2023/12/26 09:02:45;;;;;;;5.70;2.78;;;10.50;99.90;;;;;;5050269;28;20488;-44
2023/12/26 09:05:11;;;;;;;3.45;1.40;;;10.40;99.90;;;;;;5052511;28;20037;-47
2023/12/26 09:07:37;;;;;;;6.13;1.20;;;10.40;99.90;;;;;;5051352;28;20032;-45
2023/12/26 09:10:03;;;;;;;2.63;1.13;;;10.50;99.90;;;;;;5050074;28;20025;-45
2023/12/26 09:12:29;;;;;;;4.70;1.50;;;10.40;99.90;;;;;;5050121;28;20531;-51
2023/12/26 09:14:54;;;;;;;5.75;1.23;;;10.40;99.90;;;;;;5052224;28;20023;-49
2023/12/26 09:17:20;;;;;;;6.18;1.23;;;10.40;99.90;;;;;;5052086;28;20102;-46
2023/12/26 09:19:45;;;;;;;3.72;1.20;;;10.40;99.90;;;;;;5051675;28;20024;-47
2023/12/26 09:22:11;;;;;;;1.63;0.95;;;10.40;99.90;;;;;;5051569;28;20104;-46
2023/12/26 09:24:36;;;;;;;1.95;1.45;;;10.40;99.90;;;;;;5051708;28;20059;-47
2023/12/26 09:27:02;;;;;;;2.28;1.05;;;10.50;99.90;;;;;;5051507;28;20024;-45
2023/12/26 09:29:28;;;;;;;3.67;1.30;;;10.50;99.90;;;;;;5051174;28;20021;-45
2023/12/26 09:31:54;;;;;;;1.88;1.15;;;10.50;99.90;;;;;;5049670;28;20056;-51
2023/12/26 09:34:19;;;;;;;3.17;1.55;;;10.50;99.90;;;;;;5051733;28;20461;-48
2023/12/26 09:36:45;;;;;;;4.78;1.10;;;10.50;99.90;;;;;;5051645;28;20063;-46
2023/12/26 09:39:10;;;;;;;4.38;0.90;;;10.50;99.90;;;;;;5051513;28;20028;-46
2023/12/26 09:41:36;;;;;;;6.32;1.50;;;10.50;99.90;;;;;;5050030;28;20021;-47
2023/12/26 09:44:01;;;;;;;6.50;1.60;;;10.50;99.90;;;;;;5047452;28;20091;-51
2023/12/26 09:46:28;;;;;;;3.15;1.30;;;10.50;99.90;;;;;;5049374;28;20505;-48
2023/12/26 09:48:54;;;;;;;3.17;1.10;;;10.50;99.90;;;;;;5050907;28;20035;-50
2023/12/26 09:51:23;;;;;;;5.20;1.92;;;10.50;99.90;;;;;;5049802;28;20040;-49
2023/12/26 09:53:57;;;;;;;4.47;1.50;;;10.50;99.90;;;;;;5050477;28;20056;-46
2023/12/26 09:56:27;;;;;;;1.95;1.08;;;10.40;99.90;;;;;;5050886;28;20033;-48
2023/12/26 09:58:54;;;;;;;4.03;1.27;;;10.30;99.90;;;;;;5051887;28;20503;-46
2023/12/26 10:01:21;;;;;;;3.60;1.27;;;10.30;99.90;;;;;;5050754;28;20052;-45
2023/12/26 10:03:47;;;;;;;2.95;1.17;;;10.30;99.90;;;;;;5051019;28;20017;-48
2023/12/26 10:06:14;;;;;;;7.97;1.88;;;10.30;99.90;;;;;;5049745;28;20098;-49
2023/12/26 10:08:42;;;;;;;4.00;1.35;;;10.40;99.90;;;;;;5050981;28;20110;-45
2023/12/26 10:11:11;;;;;;;3.10;1.30;;;10.40;99.90;;;;;;5050848;28;20025;-45
2023/12/26 10:13:42;;;;;;;3.30;1.00;;;10.40;99.90;;;;;;5048751;28;20093;-48
2023/12/26 10:16:08;;;;;;;2.17;0.77;;;10.50;99.90;;;;;;5050935;28;20032;-46
2023/12/26 10:18:33;;;;;;;7.18;1.15;;;10.50;99.90;;;;;;5050991;28;20021;-48
2023/12/26 10:20:59;;;;;;;4.55;1.67;;;10.50;99.90;;;;;;5050806;28;20036;-46
2023/12/26 10:23:24;;;;;;;0.93;0.90;;;10.60;99.90;;;;;;5049856;28;20408;-47
2023/12/26 10:25:50;;;;;;;0.80;0.80;;;10.70;99.90;;;;;;5051069;28;20041;-45
2023/12/26 10:28:16;;;;;;;2.60;0.80;;;10.60;99.90;;;;;;5051478;28;20032;-48
2023/12/26 10:30:42;;;;;;;2.60;0.88;;;10.60;99.90;;;;;;5054385;28;20568;-46
2023/12/26 10:33:07;;;;;;;1.92;0.60;;;10.70;99.90;;;;;;5054406;28;20052;-49
2023/12/26 10:35:33;;;;;;;2.67;0.60;;;10.70;99.90;;;;;;5055003;28;20017;-55
2023/12/26 10:37:59;;;;;;;1.20;0.63;;;10.60;99.90;;;;;;5053882;28;20025;-47
2023/12/26 10:40:25;;;;;;;2.22;0.98;;;10.60;99.90;;;;;;5053792;28;20037;-45
2023/12/26 10:42:51;;;;;;;1.23;0.88;;;10.70;99.90;;;;;;5061290;28;20025;-54
2023/12/26 10:45:20;;;;;;;2.85;1.40;;;10.70;99.90;;;;;;5053569;28;20441;-54
2023/12/26 10:47:52;;;;;;;2.00;0.90;;;10.70;99.90;;;;;;5053722;28;20423;-57
2023/12/26 10:50:18;;;;;;;2.42;0.70;;;10.80;99.90;;;;;;5052201;28;20037;-61
2023/12/26 10:52:52;;;;;;;1.55;0.90;;;10.90;99.90;;;;;;5052814;28;20021;-57
2023/12/26 10:55:19;;;;;;;1.73;0.93;;;10.90;99.90;;;;;;5052581;28;20029;-58
2023/12/26 10:57:46;;;;;;;0.95;0.90;;;11.00;99.90;;;;;;5053896;28;20013;-56
2023/12/26 11:00:12;;;;;;;1.25;0.50;;;11.00;99.90;;;;;;5052363;28;20407;-54
2023/12/26 11:02:39;;;;;;;0.70;0.70;;;11.00;99.90;;;;;;5051664;28;20032;-55
2023/12/26 11:05:04;;;;;;;1.05;1.02;;;11.00;99.90;;;;;;5051853;28;20407;-49
2023/12/26 11:07:30;;;;;;;1.52;0.70;;;11.00;99.90;;;;;;5053501;28;20304;-53
2023/12/26 11:09:56;;;;;;;0.68;0.68;;;10.90;99.90;;;;;;5044327;28;20061;-49
2023/12/26 11:12:21;;;;;;;2.75;0.60;;;10.90;99.90;;;;;;5042810;28;20025;-50
2023/12/26 11:14:48;;;;;;;1.00;0.47;;;10.90;99.90;;;;;;5053745;28;20021;-50
2023/12/26 11:17:14;;;;;;;0.75;0.70;;;10.80;99.90;;;;;;5052639;28;20032;-49
2023/12/26 11:19:41;;;;;;;0.50;0.50;;;10.80;99.90;;;;;;5051504;28;20025;-47
2023/12/26 11:22:08;;;;;;;1.38;0.77;;;10.80;99.90;;;;;;5052735;28;20099;-51
2023/12/26 11:24:33;;;;;;;1.00;0.65;;;10.90;99.90;;;;;;5049535;28;20523;-57
2023/12/26 11:26:59;;;;;;;1.55;0.80;;;11.00;99.90;;;;;;5049491;28;20029;-54
2023/12/26 11:29:26;;;;;;;2.63;0.60;;;11.00;99.90;;;;;;5050464;28;20036;-53
2023/12/26 11:31:51;;;;;;;1.38;0.80;;;11.00;99.90;;;;;;5050976;28;20033;-54
2023/12/26 11:34:17;;;;;;;0.60;0.60;;;11.10;99.90;;;;;;5052144;28;20055;-52
2023/12/26 11:36:45;;;;;;;0.57;0.47;;;11.00;99.90;;;;;;5053058;28;20021;-45
2023/12/26 11:39:15;;;;;;;0.63;0.63;;;11.10;99.90;;;;;;5050839;28;20049;-51
2023/12/26 11:41:41;;;;;;;1.20;0.60;;;11.10;99.90;;;;;;5050979;28;20025;-51
2023/12/26 11:44:06;;;;;;;2.20;0.93;;;11.10;99.90;;;;;;5052264;28;20031;-55
2023/12/26 11:46:32;;;;;;;1.33;1.23;;;11.00;99.90;;;;;;5052919;28;20418;-53
2023/12/26 11:48:57;;;;;;;0.80;0.80;;;11.00;99.90;;;;;;5051348;28;20033;-51
2023/12/26 11:51:23;;;;;;;0.60;0.60;;;11.00;99.90;;;;;;5052021;28;20032;-54
2023/12/26 11:53:48;;;;;;;1.13;0.80;;;11.50;99.90;;;;;;5052410;28;20104;-52
2023/12/26 11:56:14;;;;;;;0.60;0.60;;;11.10;99.90;;;;;;5052473;28;20029;-50
2023/12/26 11:58:39;;;;;;;0.60;0.60;;;11.10;99.90;;;;;;5053056;28;20021;-52
2023/12/26 12:01:05;;;;;;;0.65;0.65;;;11.10;99.90;;;;;;5052596;28;20029;-54
2023/12/26 12:03:32;;;;;;;0.55;0.55;;;11.10;99.90;;;;;;5051369;28;20036;-52
2023/12/26 12:06:13;;;;;;;0.47;0.47;;;11.10;99.90;;;;;;5052192;28;20050;-48
2023/12/26 12:09:02;;;;;;;4.03;1.73;;;11.10;99.90;;;;;;5052628;28;20075;-54
2023/12/26 12:11:27;;;;;;;0.70;0.70;;;11.10;99.90;;;;;;5052003;28;20082;-52
2023/12/26 12:13:53;;;;;;;1.10;1.02;;;11.10;99.90;;;;;;5052269;28;20022;-54
2023/12/26 12:16:23;;;;;;;0.65;0.50;;;11.10;99.90;;;;;;5051014;28;20025;-51
2023/12/26 12:19:02;;;;;;;1.17;1.05;;;11.10;99.90;;;;;;5051703;28;20056;-51
2023/12/26 12:21:37;;;;;;;0.70;0.70;;;11.20;99.90;;;;;;5047182;28;20037;-55
2023/12/26 12:24:03;;;;;;;;;;;11.10;99.90;;;;;;5052510;28;20534;-51
2023/12/26 12:26:49;;;;;;;;;;;11.20;99.90;;;;;;5050947;28;20380;-49
2023/12/26 12:29:14;;;;;;;0.45;0.45;;;11.10;99.90;;;;;;5051997;28;20026;-49
2023/12/26 12:31:40;;;;;;;2.33;0.50;;;11.10;99.90;;;;;;5051075;28;20058;-54
2023/12/26 12:34:12;;;;;;;7.90;2.25;;;11.10;99.90;;;;;;5051574;28;20376;-49
2023/12/26 12:36:38;;;;;;;0.93;0.93;;;11.10;99.90;;;;;;5050515;28;20063;-50
2023/12/26 12:39:03;;;;;;;0.88;0.70;;;11.00;99.90;;;;;;5051895;28;20029;-50